createdAt,value
2019-05-25T00:00:52.448Z,0.00
2019-05-25T00:01:52.440Z,0.00
2019-05-25T00:02:52.440Z,0.00
2019-05-25T00:03:52.444Z,0.00
2019-05-25T00:04:52.455Z,0.00
2019-05-25T00:05:52.401Z,0.00
2019-05-25T00:06:52.398Z,0.00
2019-05-25T00:07:52.376Z,0.00
2019-05-25T00:08:52.356Z,0.00
2019-05-25T00:09:52.369Z,0.00
2019-05-25T00:10:52.344Z,0.00
2019-05-25T00:11:52.340Z,0.00
2019-05-25T00:12:52.327Z,0.00
2019-05-25T00:13:52.311Z,0.00
2019-05-25T00:14:52.316Z,0.00
2019-05-25T00:15:52.311Z,0.00
2019-05-25T00:16:52.283Z,0.00
2019-05-25T00:17:52.512Z,0.00
2019-05-25T00:18:52.267Z,0.00
2019-05-25T00:19:52.242Z,0.00
2019-05-25T00:20:52.241Z,0.00
2019-05-25T00:21:52.221Z,0.00
2019-05-25T00:22:52.210Z,0.00
2019-05-25T00:23:52.200Z,0.00
2019-05-25T00:24:52.196Z,0.00
2019-05-25T00:25:52.188Z,0.00
2019-05-25T00:26:52.170Z,0.00
2019-05-25T00:27:52.210Z,0.00
2019-05-25T00:28:52.159Z,0.00
2019-05-25T00:29:52.138Z,0.00
2019-05-25T00:30:52.128Z,0.00
2019-05-25T00:31:52.118Z,0.00
2019-05-25T00:32:52.127Z,0.00
2019-05-25T00:33:52.098Z,0.00
2019-05-25T00:34:52.088Z,0.00
2019-05-25T00:35:52.075Z,0.00
2019-05-25T00:36:52.067Z,0.00
2019-05-25T00:37:52.064Z,0.00
2019-05-25T00:38:52.055Z,0.00
2019-05-25T00:39:52.045Z,0.00
2019-05-25T00:40:52.025Z,0.00
2019-05-25T00:41:52.012Z,0.00
2019-05-25T00:42:52.035Z,0.00
2019-05-25T00:43:52.002Z,0.00
2019-05-25T00:44:51.982Z,0.00
2019-05-25T00:45:51.984Z,0.00
2019-05-25T00:46:51.970Z,0.00
2019-05-25T00:47:51.942Z,0.00
2019-05-25T00:48:51.946Z,0.00
2019-05-25T00:49:51.933Z,0.00
2019-05-25T00:50:51.930Z,0.00
2019-05-25T00:51:51.912Z,0.00
2019-05-25T00:52:51.923Z,0.00
2019-05-25T00:53:51.884Z,0.00
2019-05-25T00:54:51.869Z,0.00
2019-05-25T00:55:51.861Z,0.00
2019-05-25T00:56:51.847Z,0.00
2019-05-25T00:57:51.847Z,0.00
2019-05-25T00:58:51.847Z,0.00
2019-05-25T00:59:51.826Z,0.00
2019-05-25T01:00:51.818Z,0.00
2019-05-25T01:01:51.794Z,0.00
2019-05-25T01:02:51.898Z,0.00
2019-05-25T01:03:51.774Z,0.00
2019-05-25T01:04:51.764Z,0.00
2019-05-25T01:05:51.753Z,0.00
2019-05-25T01:06:51.755Z,0.00
2019-05-25T01:07:51.756Z,0.00
2019-05-25T01:08:51.722Z,0.00
2019-05-25T01:09:51.711Z,0.00
2019-05-25T01:10:51.701Z,0.00
2019-05-25T01:11:51.701Z,0.00
2019-05-25T01:12:51.730Z,0.00
2019-05-25T01:13:51.670Z,0.00
2019-05-25T01:14:51.664Z,0.00
2019-05-25T01:15:51.651Z,0.00
2019-05-25T01:16:51.646Z,0.00
2019-05-25T01:17:51.630Z,0.00
2019-05-25T01:18:51.628Z,0.00
2019-05-25T01:19:51.628Z,0.00
2019-05-25T01:20:51.609Z,0.00
2019-05-25T01:21:51.596Z,0.00
2019-05-25T01:22:51.580Z,0.00
2019-05-25T01:23:51.574Z,0.00
2019-05-25T01:24:51.553Z,0.00
2019-05-25T01:25:51.543Z,0.00
2019-05-25T01:26:51.561Z,0.00
2019-05-25T01:27:51.524Z,0.00
2019-05-25T01:28:51.512Z,0.00
2019-05-25T01:29:51.514Z,0.00
2019-05-25T01:30:51.501Z,0.00
2019-05-25T01:31:51.481Z,0.00
2019-05-25T01:32:51.498Z,0.00
2019-05-25T01:33:51.500Z,0.00
2019-05-25T01:34:51.448Z,0.00
2019-05-25T01:35:51.431Z,0.00
2019-05-25T01:36:51.441Z,0.00
2019-05-25T01:37:51.431Z,0.00
2019-05-25T01:38:51.412Z,0.00
2019-05-25T01:39:51.394Z,0.00
2019-05-25T01:40:51.389Z,0.00
2019-05-25T01:41:51.389Z,0.00
2019-05-25T01:42:51.418Z,0.00
2019-05-25T01:43:51.368Z,0.00
2019-05-25T01:44:51.338Z,0.00
2019-05-25T01:45:51.331Z,0.00
2019-05-25T01:46:51.327Z,0.00
2019-05-25T01:47:51.339Z,0.00
2019-05-25T01:48:51.422Z,0.00
2019-05-25T01:49:51.285Z,0.00
2019-05-25T01:50:51.276Z,0.00
2019-05-25T01:51:51.289Z,0.00
2019-05-25T01:52:51.265Z,0.00
2019-05-25T01:53:51.273Z,0.00
2019-05-25T01:54:59.387Z,0.00
2019-05-25T01:55:52.225Z,0.00
2019-05-25T01:56:51.213Z,0.00
2019-05-25T01:57:51.202Z,0.00
2019-05-25T01:58:51.214Z,0.00
2019-05-25T01:59:51.182Z,0.00
2019-05-25T02:00:51.162Z,0.00
2019-05-25T02:01:51.169Z,0.00
2019-05-25T02:02:51.161Z,0.00
2019-05-25T02:03:51.151Z,0.00
2019-05-25T02:04:51.123Z,0.00
2019-05-25T02:05:51.120Z,0.00
2019-05-25T02:06:51.116Z,0.00
2019-05-25T02:07:51.099Z,0.00
2019-05-25T02:08:51.092Z,0.00
2019-05-25T02:09:51.090Z,0.00
2019-05-25T02:10:51.068Z,0.00
2019-05-25T02:11:51.114Z,0.00
2019-05-25T02:12:51.037Z,0.00
2019-05-25T02:13:51.092Z,0.00
2019-05-25T02:14:51.073Z,0.00
2019-05-25T02:15:51.032Z,0.00
2019-05-25T02:16:51.988Z,0.00
2019-05-25T02:17:50.993Z,0.00
2019-05-25T02:18:50.994Z,0.00
2019-05-25T02:19:50.991Z,0.00
2019-05-25T02:20:50.954Z,0.00
2019-05-25T02:21:50.953Z,0.00
2019-05-25T02:22:50.933Z,0.00
2019-05-25T02:23:50.930Z,0.00
2019-05-25T02:24:50.963Z,0.00
2019-05-25T02:25:50.915Z,0.00
2019-05-25T02:26:50.903Z,0.00
2019-05-25T02:27:50.883Z,0.00
2019-05-25T02:28:50.889Z,0.00
2019-05-25T02:29:50.870Z,0.00
2019-05-25T02:30:50.850Z,0.00
2019-05-25T02:31:50.840Z,0.00
2019-05-25T02:32:50.834Z,0.00
2019-05-25T02:33:50.817Z,0.00
2019-05-25T02:34:50.841Z,0.00
2019-05-25T02:35:50.808Z,0.00
2019-05-25T02:36:50.787Z,0.00
2019-05-25T02:37:50.810Z,0.00
2019-05-25T02:38:50.775Z,0.00
2019-05-25T02:39:50.757Z,0.00
2019-05-25T02:40:50.756Z,0.00
2019-05-25T02:41:50.734Z,0.00
2019-05-25T02:42:50.724Z,0.00
2019-05-25T02:43:50.719Z,0.00
2019-05-25T02:44:50.695Z,0.00
2019-05-25T02:45:50.714Z,0.00
2019-05-25T02:46:50.699Z,0.00
2019-05-25T02:47:50.663Z,0.00
2019-05-25T02:48:50.669Z,0.00
2019-05-25T02:49:50.653Z,0.00
2019-05-25T02:50:53.014Z,0.00
2019-05-25T02:51:50.639Z,0.00
2019-05-25T02:52:50.611Z,0.00
2019-05-25T02:53:50.602Z,0.00
2019-05-25T02:54:50.594Z,0.00
2019-05-25T02:55:50.599Z,0.00
2019-05-25T02:56:50.572Z,0.00
2019-05-25T02:57:50.572Z,0.00
2019-05-25T02:58:50.563Z,0.00
2019-05-25T02:59:50.549Z,0.00
2019-05-25T03:00:50.538Z,0.00
2019-05-25T03:01:50.528Z,4.00
2019-05-25T03:02:50.526Z,4.00
2019-05-25T03:03:50.496Z,4.00
2019-05-25T03:04:50.496Z,4.00
2019-05-25T03:05:50.478Z,0.00
2019-05-25T03:06:50.483Z,4.00
2019-05-25T03:07:50.455Z,4.00
2019-05-25T03:08:50.455Z,4.00
2019-05-25T03:09:50.435Z,0.00
2019-05-25T03:10:50.485Z,4.00
2019-05-25T03:11:50.424Z,4.00
2019-05-25T03:12:50.405Z,4.00
2019-05-25T03:13:50.398Z,4.00
2019-05-25T03:14:50.402Z,8.00
2019-05-25T03:15:50.372Z,8.00
2019-05-25T03:16:50.368Z,8.00
2019-05-25T03:17:50.351Z,8.00
2019-05-25T03:18:50.352Z,12.00
2019-05-25T03:19:50.330Z,16.00
2019-05-25T03:20:50.321Z,16.00
2019-05-25T03:21:50.312Z,24.00
2019-05-25T03:22:50.311Z,28.00
2019-05-25T03:23:50.287Z,28.00
2019-05-25T03:24:50.269Z,32.00
2019-05-25T03:25:50.433Z,32.00
2019-05-25T03:26:50.257Z,36.00
2019-05-25T03:27:50.267Z,40.00
2019-05-25T03:28:50.240Z,44.00
2019-05-25T03:29:50.226Z,44.00
2019-05-25T03:30:50.228Z,44.00
2019-05-25T03:31:50.197Z,48.00
2019-05-25T03:32:50.196Z,48.00
2019-05-25T03:33:50.197Z,52.00
2019-05-25T03:34:50.167Z,56.00
2019-05-25T03:35:50.168Z,56.00
2019-05-25T03:36:50.156Z,56.00
2019-05-25T03:37:50.149Z,56.00
2019-05-25T03:38:50.126Z,56.00
2019-05-25T03:39:50.124Z,56.00
2019-05-25T03:40:50.103Z,60.00
2019-05-25T03:41:50.090Z,60.00
2019-05-25T03:42:50.096Z,64.00
2019-05-25T03:43:50.072Z,68.00
2019-05-25T03:44:50.069Z,76.00
2019-05-25T03:45:50.058Z,80.00
2019-05-25T03:46:50.065Z,88.00
2019-05-25T03:47:50.037Z,88.00
2019-05-25T03:48:50.031Z,92.00
2019-05-25T03:49:50.009Z,100.00
2019-05-25T03:50:50.009Z,108.00
2019-05-25T03:51:49.979Z,120.00
2019-05-25T03:52:50.000Z,128.00
2019-05-25T03:53:49.978Z,136.00
2019-05-25T03:54:49.966Z,152.00
2019-05-25T03:56:04.716Z,160.00
2019-05-25T03:56:50.936Z,176.00
2019-05-25T03:57:49.936Z,192.00
2019-05-25T03:58:49.926Z,212.00
2019-05-25T03:59:49.895Z,240.00
2019-05-25T04:00:49.885Z,252.00
2019-05-25T04:01:49.893Z,272.00
2019-05-25T04:02:50.131Z,284.00
2019-05-25T04:03:49.863Z,304.00
2019-05-25T04:04:49.844Z,316.00
2019-05-25T04:06:58.762Z,300.00
2019-05-25T04:07:58.758Z,320.00
2019-05-25T04:08:58.749Z,360.00
2019-05-25T04:09:58.710Z,416.00
2019-05-25T04:10:58.721Z,468.00
2019-05-25T04:11:58.708Z,504.00
2019-05-25T04:12:58.699Z,536.00
2019-05-25T04:13:58.699Z,592.00
2019-05-25T04:14:58.666Z,648.00
2019-05-25T04:15:58.723Z,684.00
2019-05-25T04:16:58.674Z,700.00
2019-05-25T04:17:58.750Z,708.00
2019-05-25T04:18:58.633Z,704.00
2019-05-25T04:19:58.614Z,720.00
2019-05-25T04:20:58.595Z,748.00
2019-05-25T04:21:58.585Z,772.00
2019-05-25T04:22:58.581Z,820.00
2019-05-25T04:23:58.595Z,880.00
2019-05-25T04:24:58.641Z,892.00
2019-05-25T04:25:58.605Z,872.00
2019-05-25T04:26:58.545Z,856.00
2019-05-25T04:27:58.521Z,832.00
2019-05-25T04:28:58.511Z,792.00
2019-05-25T04:29:58.501Z,784.00
2019-05-25T04:30:58.510Z,828.00
2019-05-25T04:31:58.489Z,904.00
2019-05-25T04:32:58.471Z,1000.00
2019-05-25T04:33:58.459Z,1056.00
2019-05-25T04:34:58.459Z,1048.00
2019-05-25T04:35:58.466Z,980.00
2019-05-25T04:36:58.431Z,904.00
2019-05-25T04:37:58.421Z,864.00
2019-05-25T04:38:58.411Z,852.00
2019-05-25T04:39:58.404Z,812.00
2019-05-25T04:40:58.407Z,800.00
2019-05-25T04:41:58.462Z,768.00
2019-05-25T04:42:58.373Z,708.00
2019-05-25T04:43:58.364Z,680.00
2019-05-25T04:44:58.344Z,712.00
2019-05-25T04:45:58.347Z,724.00
2019-05-25T04:46:58.327Z,684.00
2019-05-25T04:47:58.324Z,640.00
2019-05-25T04:48:58.302Z,612.00
2019-05-25T04:49:58.294Z,628.00
2019-05-25T04:50:58.293Z,640.00
2019-05-25T04:51:58.283Z,620.00
2019-05-25T04:52:58.252Z,580.00
2019-05-25T04:53:58.243Z,552.00
2019-05-25T04:54:58.232Z,512.00
2019-05-25T04:55:58.246Z,484.00
2019-05-25T04:56:58.220Z,472.00
2019-05-25T04:57:58.200Z,476.00
2019-05-25T04:58:58.198Z,512.00
2019-05-25T04:59:58.180Z,548.00
2019-05-25T05:00:58.168Z,560.00
2019-05-25T05:01:58.168Z,564.00
2019-05-25T05:02:58.156Z,572.00
2019-05-25T05:03:58.148Z,584.00
2019-05-25T05:04:58.129Z,596.00
2019-05-25T05:05:58.120Z,596.00
2019-05-25T05:06:58.147Z,576.00
2019-05-25T05:07:58.096Z,560.00
2019-05-25T05:08:58.090Z,560.00
2019-05-25T05:10:02.766Z,592.00
2019-05-25T05:10:59.065Z,652.00
2019-05-25T05:11:58.076Z,720.00
2019-05-25T05:12:58.058Z,772.00
2019-05-25T05:13:58.032Z,792.00
2019-05-25T05:14:58.022Z,796.00
2019-05-25T05:15:58.024Z,796.00
2019-05-25T05:16:58.005Z,796.00
2019-05-25T05:17:57.982Z,804.00
2019-05-25T05:18:57.981Z,812.00
2019-05-25T05:19:57.973Z,824.00
2019-05-25T05:20:57.981Z,820.00
2019-05-25T05:21:57.949Z,820.00
2019-05-25T05:22:57.932Z,832.00
2019-05-25T05:23:57.930Z,820.00
2019-05-25T05:24:57.919Z,796.00
2019-05-25T05:25:57.917Z,808.00
2019-05-25T05:26:57.897Z,832.00
2019-05-25T05:27:57.915Z,872.00
2019-05-25T05:28:57.877Z,876.00
2019-05-25T05:29:57.877Z,848.00
2019-05-25T05:30:57.872Z,848.00
2019-05-25T05:31:57.837Z,852.00
2019-05-25T05:32:57.844Z,856.00
2019-05-25T05:33:57.816Z,884.00
2019-05-25T05:34:57.817Z,908.00
2019-05-25T05:35:57.825Z,924.00
2019-05-25T05:36:57.790Z,944.00
2019-05-25T05:37:57.785Z,1016.00
2019-05-25T05:38:57.763Z,1088.00
2019-05-25T05:39:57.756Z,1108.00
2019-05-25T05:40:57.742Z,1080.00
2019-05-25T05:41:57.747Z,1096.00
2019-05-25T05:42:57.735Z,1228.00
2019-05-25T05:43:57.728Z,1396.00
2019-05-25T05:44:57.852Z,1544.00
2019-05-25T05:45:57.690Z,1704.00
2019-05-25T05:46:57.692Z,1848.00
2019-05-25T05:47:57.700Z,1944.00
2019-05-25T05:48:57.688Z,1988.00
2019-05-25T05:49:57.651Z,2024.00
2019-05-25T05:50:57.639Z,2000.00
2019-05-25T05:51:57.639Z,1984.00
2019-05-25T05:52:57.631Z,2056.00
2019-05-25T05:53:57.619Z,2116.00
2019-05-25T05:54:57.597Z,2088.00
2019-05-25T05:55:57.599Z,1996.00
2019-05-25T05:57:11.085Z,1932.00
2019-05-25T05:57:58.578Z,1892.00
2019-05-25T05:58:57.566Z,1868.00
2019-05-25T05:59:57.539Z,1832.00
2019-05-25T06:00:57.534Z,1764.00
2019-05-25T06:01:57.524Z,1676.00
2019-05-25T06:02:57.514Z,1660.00
2019-05-25T06:03:57.525Z,1724.00
2019-05-25T06:04:57.485Z,1836.00
2019-05-25T06:05:57.483Z,1936.00
2019-05-25T06:08:09.022Z,2028.00
2019-05-25T06:09:06.465Z,2136.00
2019-05-25T06:10:06.357Z,2232.00
2019-05-25T06:11:06.359Z,2300.00
2019-05-25T06:12:06.340Z,2380.00
2019-05-25T06:13:06.329Z,2560.00
2019-05-25T06:14:06.333Z,2780.00
2019-05-25T06:15:06.304Z,3084.00
2019-05-25T06:16:06.296Z,3608.00
2019-05-25T06:17:06.276Z,3944.00
2019-05-25T06:18:06.275Z,4208.00
2019-05-25T06:19:06.297Z,4432.00
2019-05-25T06:20:06.246Z,4712.00
2019-05-25T06:21:06.257Z,4952.00
2019-05-25T06:22:06.233Z,5264.00
2019-05-25T06:23:08.596Z,5556.00
2019-05-25T06:24:07.221Z,5848.00
2019-05-25T06:25:06.204Z,6064.00
2019-05-25T06:26:06.193Z,6476.00
2019-05-25T06:27:06.181Z,7036.00
2019-05-25T06:28:06.169Z,8720.00
2019-05-25T06:29:06.165Z,9880.00
2019-05-25T06:30:06.161Z,13656.00
2019-05-25T06:31:06.146Z,8244.00
2019-05-25T06:32:06.120Z,7304.00
2019-05-25T06:33:06.107Z,11432.00
2019-05-25T06:34:06.102Z,10324.00
2019-05-25T06:35:06.108Z,6604.00
2019-05-25T06:36:06.079Z,7132.00
2019-05-25T06:37:06.068Z,5592.00
2019-05-25T06:38:06.060Z,5064.00
2019-05-25T06:39:06.057Z,4736.00
2019-05-25T06:40:06.053Z,4504.00
2019-05-25T06:41:08.555Z,4228.00
2019-05-25T06:42:06.019Z,4172.00
2019-05-25T06:43:06.007Z,4100.00
2019-05-25T06:44:06.009Z,4132.00
2019-05-25T06:45:05.997Z,4288.00
2019-05-25T06:46:05.974Z,4504.00
2019-05-25T06:47:05.954Z,4824.00
2019-05-25T06:48:05.954Z,5216.00
2019-05-25T06:49:05.933Z,5728.00
2019-05-25T06:50:05.943Z,6196.00
2019-05-25T06:51:05.914Z,6592.00
2019-05-25T06:52:05.925Z,7356.00
2019-05-25T06:53:05.904Z,8612.00
2019-05-25T06:54:05.883Z,7284.00
2019-05-25T06:55:05.882Z,7116.00
2019-05-25T06:56:05.871Z,7424.00
2019-05-25T06:57:05.870Z,7100.00
2019-05-25T06:58:05.840Z,7168.00
2019-05-25T06:59:05.830Z,7264.00
2019-05-25T07:00:05.839Z,7036.00
2019-05-25T07:01:05.809Z,6576.00
2019-05-25T07:02:05.798Z,7160.00
2019-05-25T07:03:05.794Z,7908.00
2019-05-25T07:04:05.768Z,8716.00
2019-05-25T07:05:05.787Z,9376.00
2019-05-25T07:06:05.751Z,11020.00
2019-05-25T07:07:05.737Z,12704.00
2019-05-25T07:08:05.753Z,13136.00
2019-05-25T07:09:05.727Z,12060.00
2019-05-25T07:10:05.716Z,13568.00
2019-05-25T07:11:05.719Z,15020.00
2019-05-25T07:12:05.718Z,26560.00
2019-05-25T07:13:05.678Z,25280.00
2019-05-25T07:14:05.685Z,13592.00
2019-05-25T07:15:05.654Z,13560.00
2019-05-25T07:16:05.644Z,24128.00
2019-05-25T07:17:05.634Z,25952.00
2019-05-25T07:18:05.635Z,28832.00
2019-05-25T07:19:05.626Z,31552.00
2019-05-25T07:20:05.623Z,28864.00
2019-05-25T07:21:05.593Z,29760.00
2019-05-25T07:22:05.574Z,23936.00
2019-05-25T07:23:05.561Z,17632.00
2019-05-25T07:24:05.561Z,19360.00
2019-05-25T07:25:05.563Z,29120.00
2019-05-25T07:26:05.551Z,39776.00
2019-05-25T07:27:05.529Z,19008.00
2019-05-25T07:28:05.522Z,12008.00
2019-05-25T07:29:05.511Z,10008.00
2019-05-25T07:30:05.579Z,11532.00
2019-05-25T07:31:05.492Z,24672.00
2019-05-25T07:32:05.473Z,14672.00
2019-05-25T07:33:05.460Z,21760.00
2019-05-25T07:34:05.449Z,20288.00
2019-05-25T07:35:05.438Z,28736.00
2019-05-25T07:36:07.568Z,24192.00
2019-05-25T07:37:05.420Z,16416.00
2019-05-25T07:38:05.407Z,12880.00
2019-05-25T07:39:05.408Z,10832.00
2019-05-25T07:40:05.386Z,10196.00
2019-05-25T07:41:05.385Z,8292.00
2019-05-25T07:42:05.360Z,7188.00
2019-05-25T07:43:05.354Z,6340.00
2019-05-25T07:44:05.357Z,6096.00
2019-05-25T07:45:05.336Z,6616.00
2019-05-25T07:46:05.326Z,7096.00
2019-05-25T07:47:05.315Z,7056.00
2019-05-25T07:48:05.316Z,5904.00
2019-05-25T07:49:05.313Z,4908.00
2019-05-25T07:50:05.302Z,4728.00
2019-05-25T07:51:05.273Z,5000.00
2019-05-25T07:52:05.253Z,6148.00
2019-05-25T07:53:05.254Z,9328.00
2019-05-25T07:54:05.233Z,10532.00
2019-05-25T07:55:05.226Z,6132.00
2019-05-25T07:56:05.212Z,5284.00
2019-05-25T07:57:05.213Z,4956.00
2019-05-25T07:58:16.508Z,4676.00
2019-05-25T07:59:06.183Z,4684.00
2019-05-25T08:00:05.211Z,5232.00
2019-05-25T08:01:05.161Z,7032.00
2019-05-25T08:02:05.150Z,12276.00
2019-05-25T08:03:05.137Z,21376.00
2019-05-25T08:04:05.128Z,27328.00
2019-05-25T08:05:05.129Z,38784.00
2019-05-25T08:06:05.117Z,31040.00
2019-05-25T08:07:05.106Z,35008.00
2019-05-25T08:08:05.577Z,33344.00
2019-05-25T08:09:05.069Z,30016.00
2019-05-25T08:10:05.060Z,39520.00
2019-05-25T08:11:05.068Z,40192.00
2019-05-25T08:12:05.047Z,26304.00
2019-05-25T08:13:05.040Z,11748.00
2019-05-25T08:14:05.026Z,12708.00
2019-05-25T08:15:05.018Z,14780.00
2019-05-25T08:16:05.006Z,17312.00
2019-05-25T08:17:04.986Z,15680.00
2019-05-25T08:18:05.003Z,16800.00
2019-05-25T08:19:04.967Z,14604.00
2019-05-25T08:20:04.965Z,15308.00
2019-05-25T08:21:04.937Z,11524.00
2019-05-25T08:22:04.945Z,12552.00
2019-05-25T08:23:04.925Z,16064.00
2019-05-25T08:24:04.915Z,23744.00
2019-05-25T08:25:04.899Z,47200.00
2019-05-25T08:26:04.902Z,52544.00
2019-05-25T08:27:04.876Z,55968.00
2019-05-25T08:28:04.873Z,56736.00
2019-05-25T08:29:04.860Z,49536.00
2019-05-25T08:30:04.864Z,37728.00
2019-05-25T08:31:04.833Z,60608.00
2019-05-25T08:32:04.822Z,66272.00
2019-05-25T08:33:04.828Z,72640.00
2019-05-25T08:34:04.811Z,67520.00
2019-05-25T08:35:04.796Z,44928.00
2019-05-25T08:36:04.797Z,19360.00
2019-05-25T08:37:04.770Z,26496.00
2019-05-25T08:38:04.763Z,23520.00
2019-05-25T08:39:04.773Z,15432.00
2019-05-25T08:40:04.739Z,14420.00
2019-05-25T08:41:04.739Z,14552.00
2019-05-25T08:42:04.729Z,18176.00
2019-05-25T08:43:04.708Z,21600.00
2019-05-25T08:44:04.731Z,23200.00
2019-05-25T08:45:04.688Z,32192.00
2019-05-25T08:46:04.682Z,13268.00
2019-05-25T08:47:04.686Z,8852.00
2019-05-25T08:48:04.668Z,8344.00
2019-05-25T08:49:04.655Z,8816.00
2019-05-25T08:50:04.659Z,10532.00
2019-05-25T08:51:04.638Z,61472.00
2019-05-25T08:52:04.616Z,11508.00
2019-05-25T08:53:04.603Z,11676.00
2019-05-25T08:54:04.604Z,28480.00
2019-05-25T08:55:04.605Z,32800.00
2019-05-25T08:56:04.570Z,11588.00
2019-05-25T08:57:04.555Z,10688.00
2019-05-25T08:58:04.546Z,11012.00
2019-05-25T08:59:04.535Z,11608.00
2019-05-25T09:00:04.536Z,11020.00
2019-05-25T09:01:04.544Z,11056.00
2019-05-25T09:02:04.505Z,11260.00
2019-05-25T09:03:04.509Z,10304.00
2019-05-25T09:04:04.484Z,10300.00
2019-05-25T09:05:04.521Z,10072.00
2019-05-25T09:06:04.482Z,9712.00
2019-05-25T09:07:04.453Z,9408.00
2019-05-25T09:08:04.443Z,11272.00
2019-05-25T09:09:04.432Z,9648.00
2019-05-25T09:10:04.577Z,8676.00
2019-05-25T09:11:04.423Z,8384.00
2019-05-25T09:12:04.411Z,8224.00
2019-05-25T09:13:04.391Z,8124.00
2019-05-25T09:14:04.385Z,7852.00
2019-05-25T09:15:06.044Z,7488.00
2019-05-25T09:16:04.381Z,7484.00
2019-05-25T09:17:04.352Z,7480.00
2019-05-25T09:18:04.340Z,8308.00
2019-05-25T09:19:04.321Z,24544.00
2019-05-25T09:20:04.318Z,9040.00
2019-05-25T09:21:04.368Z,6900.00
2019-05-25T09:22:04.291Z,6000.00
2019-05-25T09:23:04.289Z,5720.00
2019-05-25T09:24:04.297Z,5628.00
2019-05-25T09:25:04.288Z,5580.00
2019-05-25T09:26:04.261Z,5524.00
2019-05-25T09:27:04.237Z,5384.00
2019-05-25T09:28:04.256Z,5408.00
2019-05-25T09:29:05.100Z,5308.00
2019-05-25T09:30:04.207Z,5424.00
2019-05-25T09:31:04.239Z,5684.00
2019-05-25T09:32:06.977Z,5844.00
2019-05-25T09:33:04.173Z,5948.00
2019-05-25T09:34:04.164Z,6112.00
2019-05-25T09:35:04.146Z,6444.00
2019-05-25T09:36:04.165Z,6796.00
2019-05-25T09:37:04.134Z,6972.00
2019-05-25T09:38:04.125Z,6768.00
2019-05-25T09:39:04.122Z,6628.00
2019-05-25T09:40:04.113Z,6556.00
2019-05-25T09:41:04.102Z,6632.00
2019-05-25T09:42:04.073Z,6776.00
2019-05-25T09:43:04.089Z,6600.00
2019-05-25T09:44:04.059Z,6736.00
2019-05-25T09:45:04.062Z,7660.00
2019-05-25T09:46:04.034Z,8624.00
2019-05-25T09:47:04.051Z,10424.00
2019-05-25T09:48:04.027Z,11240.00
2019-05-25T09:49:04.011Z,11800.00
2019-05-25T09:50:03.999Z,11752.00
2019-05-25T09:51:03.989Z,11440.00
2019-05-25T09:52:04.017Z,10640.00
2019-05-25T09:53:03.979Z,9976.00
2019-05-25T09:54:03.948Z,9952.00
2019-05-25T09:55:03.958Z,10648.00
2019-05-25T09:56:03.927Z,10868.00
2019-05-25T09:57:03.953Z,10888.00
2019-05-25T09:58:03.919Z,10924.00
2019-05-25T09:59:17.605Z,11012.00
2019-05-25T10:00:04.886Z,10828.00
2019-05-25T10:01:03.887Z,10264.00
2019-05-25T10:02:03.864Z,9720.00
2019-05-25T10:03:03.846Z,10384.00
2019-05-25T10:04:03.862Z,10344.00
2019-05-25T10:05:04.063Z,10584.00
2019-05-25T10:06:10.790Z,10496.00
2019-05-25T10:07:04.814Z,10864.00
2019-05-25T10:08:03.835Z,10964.00
2019-05-25T10:09:03.805Z,10552.00
2019-05-25T10:10:03.782Z,10512.00
2019-05-25T10:11:03.771Z,10236.00
2019-05-25T10:12:03.763Z,10036.00
2019-05-25T10:13:03.762Z,10156.00
2019-05-25T10:14:03.745Z,10152.00
2019-05-25T10:15:03.731Z,10104.00
2019-05-25T10:16:03.737Z,10064.00
2019-05-25T10:17:03.711Z,10368.00
2019-05-25T10:18:03.702Z,10704.00
2019-05-25T10:19:03.691Z,11112.00
2019-05-25T10:20:03.675Z,10388.00
2019-05-25T10:21:03.670Z,10032.00
2019-05-25T10:22:03.651Z,9988.00
2019-05-25T10:23:03.659Z,10308.00
2019-05-25T10:24:03.630Z,10344.00
2019-05-25T10:25:03.619Z,10576.00
2019-05-25T10:26:03.608Z,10836.00
2019-05-25T10:27:03.598Z,10500.00
2019-05-25T10:28:03.589Z,9900.00
2019-05-25T10:29:03.588Z,9192.00
2019-05-25T10:30:03.567Z,8828.00
2019-05-25T10:31:03.557Z,8628.00
2019-05-25T10:32:03.567Z,8960.00
2019-05-25T10:33:03.536Z,8776.00
2019-05-25T10:34:03.528Z,8832.00
2019-05-25T10:35:03.516Z,8708.00
2019-05-25T10:36:03.510Z,8344.00
2019-05-25T10:37:03.488Z,8424.00
2019-05-25T10:38:03.489Z,7888.00
2019-05-25T10:39:03.478Z,8008.00
2019-05-25T10:40:03.464Z,8420.00
2019-05-25T10:41:03.476Z,8440.00
2019-05-25T10:42:03.433Z,7964.00
2019-05-25T10:43:03.425Z,7728.00
2019-05-25T10:44:03.416Z,7136.00
2019-05-25T10:45:03.424Z,6852.00
2019-05-25T10:46:03.393Z,6808.00
2019-05-25T10:47:03.393Z,6760.00
2019-05-25T10:48:03.372Z,6744.00
2019-05-25T10:49:03.367Z,6652.00
2019-05-25T10:50:03.361Z,6772.00
2019-05-25T10:51:03.342Z,6948.00
2019-05-25T10:52:03.334Z,7104.00
2019-05-25T10:53:03.356Z,7208.00
2019-05-25T10:54:03.322Z,7408.00
2019-05-25T10:55:03.291Z,7440.00
2019-05-25T10:56:03.331Z,6804.00
2019-05-25T10:57:03.292Z,6984.00
2019-05-25T10:58:03.262Z,7228.00
2019-05-25T10:59:03.259Z,7384.00
2019-05-25T11:00:03.240Z,7400.00
2019-05-25T11:01:03.230Z,6468.00
2019-05-25T11:02:03.261Z,6996.00
2019-05-25T11:03:03.208Z,7220.00
2019-05-25T11:04:03.217Z,7192.00
2019-05-25T11:05:03.189Z,7344.00
2019-05-25T11:06:03.193Z,6672.00
2019-05-25T11:07:03.166Z,6132.00
2019-05-25T11:08:03.166Z,5708.00
2019-05-25T11:09:03.147Z,5380.00
2019-05-25T11:10:03.145Z,5136.00
2019-05-25T11:11:03.129Z,5156.00
2019-05-25T11:12:03.137Z,5208.00
2019-05-25T11:13:03.124Z,5400.00
2019-05-25T11:14:03.095Z,5684.00
2019-05-25T11:15:03.136Z,5580.00
2019-05-25T11:16:03.074Z,5788.00
2019-05-25T11:17:03.073Z,6400.00
2019-05-25T11:18:03.076Z,6500.00
2019-05-25T11:19:03.067Z,6584.00
2019-05-25T11:20:03.041Z,6812.00
2019-05-25T11:21:03.061Z,7360.00
2019-05-25T11:22:03.036Z,7352.00
2019-05-25T11:23:02.996Z,7100.00
2019-05-25T11:24:02.982Z,6568.00
2019-05-25T11:25:03.018Z,6520.00
2019-05-25T11:26:02.961Z,6424.00
2019-05-25T11:27:02.951Z,6748.00
2019-05-25T11:28:02.947Z,6324.00
2019-05-25T11:29:02.956Z,6128.00
2019-05-25T11:30:08.997Z,6436.00
2019-05-25T11:31:03.909Z,7044.00
2019-05-25T11:32:05.462Z,6632.00
2019-05-25T11:33:02.914Z,6308.00
2019-05-25T11:34:02.879Z,5676.00
2019-05-25T11:35:02.878Z,5208.00
2019-05-25T11:36:02.859Z,5604.00
2019-05-25T11:37:02.874Z,5292.00
2019-05-25T11:38:02.837Z,5460.00
2019-05-25T11:39:02.837Z,6236.00
2019-05-25T11:40:02.817Z,6804.00
2019-05-25T11:41:02.797Z,6964.00
2019-05-25T11:42:02.806Z,6972.00
2019-05-25T11:43:02.788Z,7188.00
2019-05-25T11:44:02.777Z,7228.00
2019-05-25T11:45:02.776Z,7276.00
2019-05-25T11:46:02.756Z,7136.00
2019-05-25T11:47:02.768Z,7016.00
2019-05-25T11:48:02.753Z,7052.00
2019-05-25T11:49:02.733Z,6928.00
2019-05-25T11:50:02.706Z,6892.00
2019-05-25T11:51:02.715Z,6840.00
2019-05-25T11:52:02.702Z,6760.00
2019-05-25T11:53:05.722Z,6752.00
2019-05-25T11:54:02.663Z,6608.00
2019-05-25T11:55:02.661Z,6340.00
2019-05-25T11:56:02.686Z,6476.00
2019-05-25T11:57:02.631Z,6628.00
2019-05-25T11:58:02.621Z,6740.00
2019-05-25T11:59:02.622Z,7208.00
2019-05-25T12:00:02.600Z,7368.00
2019-05-25T12:01:02.601Z,7160.00
2019-05-25T12:02:02.593Z,7024.00
2019-05-25T12:03:02.586Z,7360.00
2019-05-25T12:04:02.560Z,7736.00
2019-05-25T12:05:02.549Z,7932.00
2019-05-25T12:06:02.540Z,7796.00
2019-05-25T12:07:02.538Z,7656.00
2019-05-25T12:08:02.510Z,7636.00
2019-05-25T12:09:02.519Z,7444.00
2019-05-25T12:10:02.546Z,7244.00
2019-05-25T12:11:02.478Z,6984.00
2019-05-25T12:12:02.482Z,6772.00
2019-05-25T12:13:02.457Z,6680.00
2019-05-25T12:14:02.784Z,6580.00
2019-05-25T12:15:02.436Z,6532.00
2019-05-25T12:16:02.437Z,6284.00
2019-05-25T12:17:02.426Z,6048.00
2019-05-25T12:18:02.425Z,5656.00
2019-05-25T12:19:02.396Z,5440.00
2019-05-25T12:20:02.385Z,5404.00
2019-05-25T12:21:02.397Z,5524.00
2019-05-25T12:22:02.365Z,5584.00
2019-05-25T12:23:02.837Z,5424.00
2019-05-25T12:24:02.359Z,5368.00
2019-05-25T12:25:02.333Z,5364.00
2019-05-25T12:26:02.363Z,5380.00
2019-05-25T12:27:02.313Z,5316.00